Time;durP1;ratioP1;P1;durP2;ratioP2;P2;SDS_P1;SDS_P2;PMS_P1;PMS_P2;Temp;Humidity;BMP_temperature;BMP_pressure;BME280_temperature;BME280_humidity;BME280_pressure;Samples;Min_cycle;Max_cycle;Signal;HPM_P1;HPM_P2
2023/08/08 00:01:02;;;;;;;1.60;1.20;;;15.30;99.90;;;;;;5031861;28;20213;-57
2023/08/08 00:03:28;;;;;;;1.33;1.05;;;15.30;99.90;;;;;;5031707;28;20213;-57
2023/08/08 00:05:55;;;;;;;2.30;1.43;;;15.30;99.90;;;;;;5031586;28;20563;-60
2023/08/08 00:08:22;;;;;;;2.73;1.60;;;15.30;99.90;;;;;;5031775;28;20230;-59
2023/08/08 00:10:50;;;;;;;2.65;1.30;;;15.20;99.90;;;;;;5032234;28;20206;-60
2023/08/08 00:13:17;;;;;;;3.30;1.55;;;15.30;99.90;;;;;;5032534;28;20301;-59
2023/08/08 00:15:44;;;;;;;2.83;1.50;;;15.30;99.90;;;;;;5031753;28;20214;-58
2023/08/08 00:18:11;;;;;;;1.65;1.40;;;15.40;99.90;;;;;;5031688;28;20230;-59
2023/08/08 00:20:38;;;;;;;2.27;1.60;;;15.40;99.90;;;;;;5031777;28;20260;-60
2023/08/08 00:23:05;;;;;;;1.47;1.03;;;15.50;99.90;;;;;;5031533;28;20206;-59
2023/08/08 00:25:31;;;;;;;2.70;1.40;;;15.40;99.90;;;;;;5031283;28;20266;-60
2023/08/08 00:27:59;;;;;;;3.10;1.00;;;15.40;99.90;;;;;;5031139;28;20734;-59
2023/08/08 00:30:26;;;;;;;1.73;1.10;;;15.50;99.90;;;;;;5031604;28;20606;-60
2023/08/08 00:32:53;;;;;;;1.20;1.10;;;15.60;99.90;;;;;;5031479;28;20216;-59
2023/08/08 00:35:19;;;;;;;2.45;1.45;;;15.70;99.90;;;;;;5031473;28;20214;-59
2023/08/08 00:37:46;;;;;;;1.90;1.30;;;15.70;99.90;;;;;;5031399;28;20246;-60
2023/08/08 00:40:13;;;;;;;2.53;1.20;;;15.70;99.90;;;;;;5031145;28;20214;-62
2023/08/08 00:42:40;;;;;;;3.60;1.35;;;15.80;99.90;;;;;;5031079;28;20214;-60
2023/08/08 00:45:09;;;;;;;1.43;1.30;;;15.80;99.90;;;;;;5031283;28;20226;-60
2023/08/08 00:47:35;;;;;;;1.98;1.25;;;15.90;99.90;;;;;;5030881;28;20222;-61
2023/08/08 00:50:02;;;;;;;1.60;1.30;;;15.90;99.90;;;;;;5031265;28;20205;-60
2023/08/08 00:52:29;;;;;;;1.27;1.10;;;16.00;99.90;;;;;;5031038;28;20634;-60
2023/08/08 00:54:56;;;;;;;1.40;0.90;;;16.00;99.90;;;;;;5031002;28;20198;-61
2023/08/08 00:57:23;;;;;;;2.72;1.27;;;16.00;99.90;;;;;;5030658;28;20723;-61
2023/08/08 00:59:50;;;;;;;4.85;1.05;;;16.00;99.90;;;;;;5031223;28;20701;-60
2023/08/08 01:02:18;;;;;;;1.52;1.13;;;16.00;99.90;;;;;;5031046;28;20625;-61
2023/08/08 01:04:45;;;;;;;1.75;1.10;;;16.00;99.90;;;;;;5031051;28;20218;-60
2023/08/08 01:07:25;;;;;;;3.30;1.45;;;16.00;99.90;;;;;;5030927;28;20238;-61
2023/08/08 01:09:56;;;;;;;2.60;1.42;;;16.00;99.90;;;;;;5031489;28;20214;-60
2023/08/08 01:12:25;;;;;;;1.88;1.00;;;16.10;99.90;;;;;;5031017;28;20697;-61
2023/08/08 01:14:52;;;;;;;2.53;1.10;;;16.10;99.90;;;;;;5031200;28;20238;-60
2023/08/08 01:17:22;;;;;;;2.15;1.30;;;16.10;99.90;;;;;;5030977;28;20252;-61
2023/08/08 01:19:49;;;;;;;1.95;1.25;;;16.10;99.90;;;;;;5030936;28;20210;-61
2023/08/08 01:22:23;;;;;;;3.42;1.30;;;16.20;99.90;;;;;;5031104;28;20772;-61
2023/08/08 01:24:52;;;;;;;2.75;1.25;;;16.20;99.90;;;;;;5031006;28;20222;-61
2023/08/08 01:27:20;;;;;;;1.52;1.00;;;16.30;99.90;;;;;;5030925;28;20309;-60
2023/08/08 01:29:47;;;;;;;2.35;1.00;;;16.20;99.90;;;;;;5032753;28;20575;-61
2023/08/08 01:32:13;;;;;;;3.70;1.23;;;16.30;99.90;;;;;;5034807;28;20226;-60
2023/08/08 01:34:40;;;;;;;1.50;1.10;;;16.30;99.90;;;;;;5034543;28;20210;-62
2023/08/08 01:37:13;;;;;;;1.45;1.25;;;16.30;99.90;;;;;;5034104;28;20230;-62
2023/08/08 01:39:42;;;;;;;1.55;1.10;;;16.40;99.90;;;;;;5034323;28;20678;-61
2023/08/08 01:42:13;;;;;;;2.33;1.17;;;16.50;99.90;;;;;;5034311;28;20568;-60
2023/08/08 01:44:42;;;;;;;1.83;1.20;;;16.50;99.90;;;;;;5034323;28;20343;-60
2023/08/08 01:47:08;;;;;;;2.57;1.10;;;16.50;99.90;;;;;;5033845;28;20238;-61
2023/08/08 01:49:35;;;;;;;1.48;1.02;;;16.50;99.90;;;;;;5034391;28;20203;-61
2023/08/08 01:52:02;;;;;;;1.75;1.10;;;16.50;99.90;;;;;;5034187;28;20217;-60
2023/08/08 01:54:29;;;;;;;2.53;1.17;;;16.50;99.90;;;;;;5034278;28;20203;-60
2023/08/08 01:56:55;;;;;;;1.60;1.20;;;16.50;99.90;;;;;;5033804;28;20226;-60
2023/08/08 01:59:23;;;;;;;2.60;1.50;;;16.50;99.90;;;;;;5033863;28;20206;-59
2023/08/08 02:01:50;;;;;;;3.08;1.25;;;16.50;99.90;;;;;;5033996;28;20233;-59
2023/08/08 02:04:17;;;;;;;2.60;1.10;;;16.50;99.90;;;;;;5034089;28;20214;-61
2023/08/08 02:06:43;;;;;;;1.45;1.25;;;16.50;99.90;;;;;;5033528;28;20252;-61
2023/08/08 02:09:10;;;;;;;1.33;1.20;;;16.50;99.90;;;;;;5033910;28;20812;-61
2023/08/08 02:11:37;;;;;;;1.20;1.02;;;16.50;99.90;;;;;;5033943;28;20210;-61
2023/08/08 02:14:03;;;;;;;1.98;1.20;;;16.60;99.90;;;;;;5033853;28;20210;-61
2023/08/08 02:16:31;;;;;;;2.70;1.30;;;16.50;99.90;;;;;;5033725;28;20230;-60
2023/08/08 02:18:58;;;;;;;1.63;0.90;;;16.60;99.90;;;;;;5033940;28;20210;-60
2023/08/08 02:21:25;;;;;;;1.23;1.10;;;16.60;99.90;;;;;;5033734;28;20217;-61
2023/08/08 02:23:51;;;;;;;3.63;1.08;;;16.60;99.90;;;;;;5033528;28;20210;-61
2023/08/08 02:26:18;;;;;;;3.95;1.02;;;16.50;99.90;;;;;;5033197;28;20231;-61
2023/08/08 02:28:45;;;;;;;1.95;1.10;;;16.60;99.90;;;;;;5033264;28;20202;-60
2023/08/08 02:31:11;;;;;;;2.60;1.05;;;16.60;99.90;;;;;;5033349;28;20690;-61
2023/08/08 02:33:39;;;;;;;2.17;1.17;;;16.50;99.90;;;;;;5033540;28;20203;-61
2023/08/08 02:36:06;;;;;;;1.33;1.08;;;16.50;99.90;;;;;;5033128;28;20206;-61
2023/08/08 02:38:33;;;;;;;1.85;0.95;;;16.50;99.90;;;;;;5033035;28;20234;-61
2023/08/08 02:40:59;;;;;;;1.75;1.08;;;16.40;99.90;;;;;;5032712;28;20202;-61
2023/08/08 02:43:26;;;;;;;2.22;1.20;;;16.50;99.90;;;;;;5033003;28;20206;-61
2023/08/08 02:45:53;;;;;;;2.17;1.08;;;16.40;99.90;;;;;;5032957;28;20260;-61
2023/08/08 02:48:19;;;;;;;1.05;1.02;;;16.30;99.90;;;;;;5032942;28;20226;-61
2023/08/08 02:50:48;;;;;;;2.00;1.30;;;16.30;99.90;;;;;;5033160;28;20214;-61
2023/08/08 02:53:14;;;;;;;6.35;1.30;;;16.20;99.90;;;;;;5033021;28;20717;-61
2023/08/08 02:55:41;;;;;;;2.13;1.15;;;16.20;99.90;;;;;;5032645;28;20540;-61
2023/08/08 02:58:07;;;;;;;1.10;1.00;;;16.10;99.90;;;;;;5032879;28;20237;-60
2023/08/08 03:00:34;;;;;;;3.67;1.10;;;16.00;99.90;;;;;;5032876;28;20210;-61
2023/08/08 03:03:01;;;;;;;1.73;1.50;;;16.00;99.90;;;;;;5032560;28;20214;-61
2023/08/08 03:05:27;;;;;;;3.00;1.55;;;15.90;99.90;;;;;;5032501;28;20701;-61
2023/08/08 03:07:55;;;;;;;1.67;1.20;;;15.80;99.90;;;;;;5032270;28;20728;-61
2023/08/08 03:10:22;;;;;;;2.50;1.50;;;15.70;99.90;;;;;;5032461;28;20233;-61
2023/08/08 03:12:49;;;;;;;3.50;1.60;;;15.50;99.90;;;;;;5032761;28;20214;-61
2023/08/08 03:15:15;;;;;;;2.53;1.23;;;15.40;99.90;;;;;;5032631;28;20228;-61
2023/08/08 03:17:42;;;;;;;1.48;1.10;;;15.30;99.90;;;;;;5031987;28;20226;-59
2023/08/08 03:20:10;;;;;;;1.77;1.20;;;15.20;99.90;;;;;;5032790;28;20206;-61
2023/08/08 03:22:37;;;;;;;1.70;1.20;;;15.10;99.90;;;;;;5032421;28;20667;-61
2023/08/08 03:25:06;;;;;;;2.87;1.57;;;15.10;99.90;;;;;;5031994;28;20226;-60
2023/08/08 03:27:33;;;;;;;2.43;1.20;;;15.00;99.90;;;;;;5031956;28;20253;-60
2023/08/08 03:29:59;;;;;;;2.23;1.20;;;14.90;99.90;;;;;;5032068;28;20612;-61
2023/08/08 03:32:26;;;;;;;3.50;1.40;;;14.80;99.90;;;;;;5032269;28;20217;-61
2023/08/08 03:34:53;;;;;;;1.50;1.27;;;14.70;99.90;;;;;;5032118;28;20214;-60
2023/08/08 03:37:19;;;;;;;2.67;1.53;;;14.70;99.90;;;;;;5031505;28;20242;-60
2023/08/08 03:39:46;;;;;;;3.10;1.50;;;14.70;99.90;;;;;;5032256;28;20202;-60
2023/08/08 03:42:14;;;;;;;1.90;1.43;;;14.80;99.90;;;;;;5032240;28;20278;-61
2023/08/08 03:44:41;;;;;;;3.10;1.60;;;14.90;99.90;;;;;;5031996;28;20316;-61
2023/08/08 03:47:08;;;;;;;2.63;1.60;;;14.80;99.90;;;;;;5031705;28;20269;-61
2023/08/08 03:49:35;;;;;;;2.63;1.80;;;14.80;99.90;;;;;;5032395;28;20249;-61
2023/08/08 03:52:01;;;;;;;4.13;1.67;;;14.70;99.90;;;;;;5031843;28;20252;-61
2023/08/08 03:54:28;;;;;;;2.20;1.60;;;14.70;99.90;;;;;;5031835;28;20210;-61
2023/08/08 03:56:54;;;;;;;1.77;1.27;;;14.70;99.90;;;;;;5031651;28;20253;-61
2023/08/08 03:59:22;;;;;;;2.30;1.40;;;14.80;99.90;;;;;;5031847;28;20206;-60
2023/08/08 04:01:49;;;;;;;3.33;1.50;;;14.80;99.90;;;;;;5031676;28;20214;-61
2023/08/08 04:04:16;;;;;;;2.73;1.50;;;14.90;99.90;;;;;;5031631;28;20590;-61
2023/08/08 04:06:42;;;;;;;2.17;1.40;;;15.00;99.90;;;;;;5031584;28;20238;-60
2023/08/08 04:09:09;;;;;;;3.23;1.50;;;15.10;99.90;;;;;;5031803;28;20209;-60
2023/08/08 04:11:36;;;;;;;4.47;1.53;;;15.20;99.90;;;;;;5031585;28;20261;-60
2023/08/08 04:14:03;;;;;;;1.97;1.30;;;15.30;99.90;;;;;;5031449;28;20241;-60
2023/08/08 04:16:31;;;;;;;4.43;2.67;;;15.40;99.90;;;;;;5031087;28;20226;-60
2023/08/08 04:18:59;;;;;;;2.97;1.67;;;15.50;99.90;;;;;;5031578;28;20217;-61
2023/08/08 04:21:28;;;;;;;3.23;1.90;;;15.50;99.90;;;;;;5031380;28;20206;-61
2023/08/08 04:23:55;;;;;;;2.40;1.60;;;15.60;99.90;;;;;;5031543;28;20259;-61
2023/08/08 04:26:21;;;;;;;5.20;1.50;;;15.70;99.90;;;;;;5031100;28;20241;-63
2023/08/08 04:28:48;;;;;;;3.30;1.60;;;15.80;99.90;;;;;;5031313;28;20210;-58
2023/08/08 04:31:15;;;;;;;5.80;2.77;;;15.80;99.90;;;;;;5031340;28;20210;-60
2023/08/08 04:33:43;;;;;;;2.78;1.40;;;15.90;99.90;;;;;;5031011;28;20262;-59
2023/08/08 04:36:10;;;;;;;2.47;1.75;;;15.90;99.90;;;;;;5031167;28;20210;-60
2023/08/08 04:38:37;;;;;;;2.47;1.50;;;15.90;99.90;;;;;;5031159;28;20297;-58
2023/08/08 04:41:03;;;;;;;2.80;1.58;;;15.90;99.90;;;;;;5031245;28;20211;-59
2023/08/08 04:43:30;;;;;;;2.47;1.77;;;15.90;99.90;;;;;;5031388;28;20210;-60
2023/08/08 04:45:57;;;;;;;3.50;1.77;;;16.00;99.90;;;;;;5030815;28;20226;-58
2023/08/08 04:48:23;;;;;;;3.03;1.87;;;16.10;99.90;;;;;;5030987;28;20236;-59
2023/08/08 04:50:51;;;;;;;2.08;1.40;;;16.20;99.90;;;;;;5031147;28;20689;-60
2023/08/08 04:53:18;;;;;;;3.10;1.73;;;16.30;99.90;;;;;;5031076;28;20214;-60
2023/08/08 04:55:45;;;;;;;14.73;9.68;;;16.30;99.90;;;;;;5031059;28;20202;-58
2023/08/08 04:58:11;;;;;;;3.78;2.03;;;16.30;99.90;;;;;;5030794;28;20718;-59
2023/08/08 05:00:38;;;;;;;2.38;1.40;;;16.30;99.90;;;;;;5030824;28;20213;-59
2023/08/08 05:03:05;;;;;;;2.17;1.77;;;16.30;99.90;;;;;;5031224;28;20206;-60
2023/08/08 05:05:32;;;;;;;2.92;1.60;;;16.40;99.90;;;;;;5034125;28;20222;-59
2023/08/08 05:08:00;;;;;;;3.50;1.60;;;16.60;99.90;;;;;;5034520;28;20734;-59
2023/08/08 05:10:27;;;;;;;1.73;1.30;;;16.70;99.90;;;;;;5034894;28;20209;-60
2023/08/08 05:12:54;;;;;;;4.47;2.33;;;16.80;99.90;;;;;;5034676;28;20217;-59
2023/08/08 05:15:20;;;;;;;3.47;2.08;;;16.70;99.90;;;;;;5035058;28;20202;-64
2023/08/08 05:17:47;;;;;;;3.45;2.05;;;16.60;99.90;;;;;;5034657;28;20233;-59
2023/08/08 05:20:14;;;;;;;1.48;1.30;;;16.50;99.90;;;;;;5034666;28;20206;-58
2023/08/08 05:22:40;;;;;;;3.40;1.50;;;16.50;99.90;;;;;;5035110;28;20202;-59
2023/08/08 05:25:09;;;;;;;3.65;1.90;;;16.40;99.90;;;;;;5034570;28;20582;-59
2023/08/08 05:27:36;;;;;;;7.05;4.25;;;16.50;99.90;;;;;;5034249;28;20238;-59
2023/08/08 05:30:03;;;;;;;3.20;1.70;;;16.60;99.90;;;;;;5034267;28;20213;-59
2023/08/08 05:32:30;;;;;;;2.28;1.40;;;16.70;99.90;;;;;;5034578;28;20213;-59
2023/08/08 05:34:57;;;;;;;9.43;5.28;;;16.90;99.90;;;;;;5034465;28;20203;-60
2023/08/08 05:37:24;;;;;;;3.15;1.85;;;17.00;99.90;;;;;;5033909;28;20321;-59
2023/08/08 05:39:52;;;;;;;3.85;1.85;;;17.30;99.90;;;;;;5034222;28;20581;-60
2023/08/08 05:42:20;;;;;;;1.85;1.30;;;17.70;99.90;;;;;;5034104;28;20214;-60
2023/08/08 05:44:47;;;;;;;1.50;1.10;;;19.00;99.90;;;;;;5034386;28;20621;-60
2023/08/08 05:47:13;;;;;;;4.05;2.30;;;20.50;99.90;;;;;;5033827;28;20234;-60
2023/08/08 05:49:41;;;;;;;2.33;1.75;;;21.10;99.90;;;;;;5034256;28;20202;-60
2023/08/08 05:52:08;;;;;;;2.33;1.55;;;21.40;99.90;;;;;;5034126;28;20253;-60
2023/08/08 05:54:35;;;;;;;3.33;1.30;;;22.20;99.90;;;;;;5034018;28;20206;-58
2023/08/08 05:57:02;;;;;;;4.70;2.95;;;22.40;99.90;;;;;;5033550;28;20226;-60
2023/08/08 05:59:30;;;;;;;4.43;2.05;;;22.20;99.90;;;;;;5034124;28;20678;-60
2023/08/08 06:01:58;;;;;;;3.97;1.30;;;22.50;99.90;;;;;;5033978;28;20206;-60
2023/08/08 06:04:25;;;;;;;2.92;0.98;;;23.30;99.90;;;;;;5033953;28;20701;-60
2023/08/08 06:06:52;;;;;;;2.42;1.27;;;24.10;99.90;;;;;;5033611;28;20602;-60
2023/08/08 06:09:19;;;;;;;3.63;1.90;;;25.30;99.90;;;;;;5033758;28;20210;-60
2023/08/08 06:11:45;;;;;;;4.10;1.23;;;26.50;99.90;;;;;;5033604;28;20217;-60
2023/08/08 06:14:12;;;;;;;3.08;1.40;;;27.40;99.50;;;;;;5034025;28;20221;-59
2023/08/08 06:16:41;;;;;;;1.85;1.35;;;27.60;98.00;;;;;;5032535;28;20424;-61
2023/08/08 06:19:08;;;;;;;4.65;1.50;;;28.20;96.00;;;;;;5033527;28;20209;-58
2023/08/08 06:21:35;;;;;;;3.08;1.45;;;28.90;95.20;;;;;;5033562;28;20218;-59
2023/08/08 06:24:01;;;;;;;5.75;1.23;;;29.90;92.40;;;;;;5033758;28;20210;-60
2023/08/08 06:26:28;;;;;;;1.80;1.10;;;30.30;89.50;;;;;;5033425;28;20230;-59
2023/08/08 06:28:55;;;;;;;7.95;1.05;;;30.30;87.50;;;;;;5033529;28;20234;-59
2023/08/08 06:31:22;;;;;;;2.05;1.27;;;31.00;82.70;;;;;;5033543;28;20578;-59
2023/08/08 06:33:50;;;;;;;1.70;0.95;;;31.60;79.20;;;;;;5033404;28;20202;-60
2023/08/08 06:36:17;;;;;;;2.42;1.00;;;32.20;76.70;;;;;;5032781;28;20209;-60
2023/08/08 06:38:44;;;;;;;2.55;1.10;;;33.10;74.30;;;;;;5033435;28;20606;-58
2023/08/08 06:41:10;;;;;;;1.30;1.08;;;33.80;69.60;;;;;;5033381;28;20217;-57
2023/08/08 06:43:37;;;;;;;6.00;1.13;;;34.10;67.00;;;;;;5033055;28;20202;-58
2023/08/08 06:46:04;;;;;;;3.20;1.15;;;34.40;65.10;;;;;;5032619;28;20218;-59
2023/08/08 06:48:31;;;;;;;3.03;1.17;;;34.90;63.10;;;;;;5033021;28;20316;-58
2023/08/08 06:50:59;;;;;;;4.40;1.25;;;34.90;61.30;;;;;;5033198;28;20226;-58
2023/08/08 06:53:26;;;;;;;3.60;1.00;;;35.10;61.10;;;;;;5032838;28;20562;-57
2023/08/08 06:55:52;;;;;;;3.40;1.30;;;34.20;61.20;;;;;;5032832;28;20202;-58
2023/08/08 06:58:19;;;;;;;1.92;0.93;;;33.30;63.00;;;;;;5032945;28;20230;-58
2023/08/08 07:00:46;;;;;;;2.72;1.00;;;33.00;63.00;;;;;;5032927;28;20217;-58
2023/08/08 07:03:12;;;;;;;2.80;1.17;;;33.10;62.80;;;;;;5032874;28;20235;-57
2023/08/08 07:05:39;;;;;;;1.65;1.10;;;33.30;62.00;;;;;;5032629;28;20220;-57
2023/08/08 07:08:08;;;;;;;1.70;1.00;;;33.30;61.00;;;;;;5032594;28;20254;-57
2023/08/08 07:10:35;;;;;;;3.03;1.10;;;33.10;62.30;;;;;;5032885;28;20202;-58
2023/08/08 07:13:02;;;;;;;3.83;1.00;;;33.30;62.10;;;;;;5032530;28;20209;-57
2023/08/08 07:15:28;;;;;;;2.42;1.23;;;33.80;61.20;;;;;;5032682;28;20260;-58
2023/08/08 07:17:55;;;;;;;1.10;0.93;;;34.00;60.80;;;;;;5032568;28;20222;-58
2023/08/08 07:20:22;;;;;;;2.85;1.00;;;34.20;59.90;;;;;;5032389;28;20202;-58
2023/08/08 07:22:49;;;;;;;1.40;0.88;;;34.70;59.10;;;;;;5032504;28;20221;-59
2023/08/08 07:25:17;;;;;;;2.42;1.00;;;35.10;56.70;;;;;;5032490;28;20203;-57
2023/08/08 07:27:44;;;;;;;2.88;1.27;;;35.40;56.40;;;;;;5031978;28;20234;-57
2023/08/08 07:30:12;;;;;;;2.22;1.05;;;34.90;56.70;;;;;;5032162;28;20218;-56
2023/08/08 07:32:38;;;;;;;4.45;1.27;;;34.60;55.80;;;;;;5032281;28;20682;-56
2023/08/08 07:35:08;;;;;;;2.97;0.90;;;33.40;56.00;;;;;;5032100;28;20229;-58
2023/08/08 07:37:35;;;;;;;2.83;1.83;;;32.20;57.60;;;;;;5031746;28;20245;-57
2023/08/08 07:40:03;;;;;;;2.35;0.93;;;30.70;59.60;;;;;;5032315;28;20563;-58
2023/08/08 07:42:31;;;;;;;2.33;0.95;;;29.90;62.80;;;;;;5032104;28;20670;-56
2023/08/08 07:44:58;;;;;;;1.55;0.82;;;29.60;63.70;;;;;;5031942;28;20233;-56
2023/08/08 07:47:25;;;;;;;2.58;1.00;;;29.90;62.60;;;;;;5031429;28;20241;-55
2023/08/08 07:49:51;;;;;;;1.77;1.10;;;30.40;62.60;;;;;;5032189;28;20333;-57
2023/08/08 07:52:18;;;;;;;1.48;0.90;;;31.30;61.20;;;;;;5032308;28;20243;-57
2023/08/08 07:54:45;;;;;;;2.90;0.90;;;32.20;59.40;;;;;;5031885;28;20205;-57
2023/08/08 07:57:11;;;;;;;1.75;1.00;;;33.30;57.50;;;;;;5031465;28;20713;-57
2023/08/08 07:59:40;;;;;;;3.15;1.88;;;34.40;55.40;;;;;;5032076;28;20206;-57
2023/08/08 08:02:07;;;;;;;1.92;0.98;;;34.90;54.10;;;;;;5031754;28;20784;-57
2023/08/08 08:04:34;;;;;;;2.00;0.90;;;34.20;54.90;;;;;;5031953;28;20240;-57
2023/08/08 08:07:01;;;;;;;2.03;0.98;;;34.00;55.50;;;;;;5031273;28;20234;-56
2023/08/08 08:09:27;;;;;;;2.38;0.88;;;34.40;55.20;;;;;;5031748;28;20210;-57
2023/08/08 08:11:54;;;;;;;2.65;0.93;;;34.70;55.20;;;;;;5031556;28;20220;-59
2023/08/08 08:14:22;;;;;;;2.15;0.95;;;34.50;55.00;;;;;;5031620;28;20206;-58
2023/08/08 08:16:50;;;;;;;1.70;1.00;;;34.20;55.90;;;;;;5031507;28;20226;-57
2023/08/08 08:19:16;;;;;;;2.28;1.02;;;33.60;56.80;;;;;;5031928;28;20214;-57
2023/08/08 08:21:43;;;;;;;1.88;1.05;;;33.10;57.30;;;;;;5031612;28;20210;-57
2023/08/08 08:24:10;;;;;;;1.60;1.10;;;31.50;57.90;;;;;;5031904;28;20654;-56
2023/08/08 08:26:37;;;;;;;2.78;1.70;;;30.50;60.00;;;;;;5031114;28;20230;-57
2023/08/08 08:29:04;;;;;;;2.13;1.10;;;29.90;62.10;;;;;;5031264;28;20210;-57
2023/08/08 08:31:30;;;;;;;2.05;1.00;;;29.60;61.80;;;;;;5031513;28;20206;-57
2023/08/08 08:33:58;;;;;;;1.45;1.20;;;29.20;62.60;;;;;;5031326;28;20206;-57
2023/08/08 08:36:25;;;;;;;1.48;0.93;;;28.40;65.20;;;;;;5030914;28;20254;-58
2023/08/08 08:38:53;;;;;;;2.38;1.50;;;27.90;66.90;;;;;;5033273;28;20206;-57
2023/08/08 08:41:25;;;;;;;2.22;1.13;;;27.60;67.50;;;;;;5037916;28;20206;-56
2023/08/08 08:43:53;;;;;;;4.32;1.20;;;27.20;68.10;;;;;;5037926;28;20220;-55
2023/08/08 08:46:22;;;;;;;1.85;1.17;;;26.90;68.80;;;;;;5037622;28;20210;-57
2023/08/08 08:48:51;;;;;;;2.58;1.02;;;26.50;70.40;;;;;;5037789;28;20213;-57
2023/08/08 08:51:20;;;;;;;1.90;1.08;;;26.40;71.20;;;;;;5037733;28;20206;-57
2023/08/08 08:53:47;;;;;;;4.28;1.20;;;26.20;72.10;;;;;;5037855;28;20206;-56
2023/08/08 08:56:14;;;;;;;1.25;1.10;;;26.00;73.30;;;;;;5037274;28;20213;-57
2023/08/08 08:58:42;;;;;;;4.85;1.40;;;26.00;73.70;;;;;;5037934;28;20210;-56
2023/08/08 09:01:09;;;;;;;3.90;1.17;;;26.20;74.10;;;;;;5038066;28;20233;-56
2023/08/08 09:03:36;;;;;;;2.05;0.98;;;26.10;73.80;;;;;;5037636;28;20589;-57
2023/08/08 09:06:05;;;;;;;1.52;0.88;;;25.90;74.20;;;;;;5037385;28;20213;-57
2023/08/08 09:08:33;;;;;;;3.95;1.00;;;25.70;75.00;;;;;;5037345;28;20234;-57
2023/08/08 09:11:00;;;;;;;2.28;1.10;;;25.40;75.60;;;;;;5037595;28;20214;-57
2023/08/08 09:13:26;;;;;;;3.25;1.30;;;25.30;76.70;;;;;;5037585;28;20206;-57
2023/08/08 09:15:55;;;;;;;2.42;1.30;;;25.30;76.70;;;;;;5037766;28;20205;-56
2023/08/08 09:18:24;;;;;;;3.40;1.10;;;25.30;76.40;;;;;;5037410;28;20222;-57
2023/08/08 09:20:51;;;;;;;4.07;1.20;;;25.20;77.00;;;;;;5035158;28;20206;-57
2023/08/08 09:23:18;;;;;;;3.17;1.50;;;25.20;76.00;;;;;;5036569;28;20650;-57
2023/08/08 09:25:46;;;;;;;3.13;1.40;;;25.40;76.20;;;;;;5036074;28;20562;-58
2023/08/08 09:28:13;;;;;;;1.42;0.90;;;25.50;76.90;;;;;;5036605;28;20230;-61
2023/08/08 09:30:39;;;;;;;1.73;1.13;;;25.60;75.90;;;;;;5036320;28;20214;-63
2023/08/08 09:33:07;;;;;;;2.35;1.13;;;25.60;75.40;;;;;;5036317;28;20210;-64
2023/08/08 09:35:34;;;;;;;2.35;1.25;;;25.70;75.00;;;;;;5036495;28;20221;-64
2023/08/08 09:38:01;;;;;;;2.35;1.13;;;25.80;75.10;;;;;;5035809;28;20285;-62
2023/08/08 09:40:29;;;;;;;2.10;1.30;;;25.90;76.20;;;;;;5036446;28;20221;-64
2023/08/08 09:42:58;;;;;;;2.22;1.02;;;26.00;75.90;;;;;;5038035;28;20273;-63
2023/08/08 09:45:24;;;;;;;2.25;1.30;;;26.10;74.50;;;;;;5036198;28;20544;-60
2023/08/08 09:47:52;;;;;;;4.13;1.13;;;26.00;74.90;;;;;;5035643;28;20686;-59
2023/08/08 09:50:20;;;;;;;3.40;1.20;;;26.00;74.60;;;;;;5035053;28;20229;-61
2023/08/08 09:52:47;;;;;;;2.55;1.10;;;25.90;74.50;;;;;;5033360;28;20229;-60
2023/08/08 09:55:15;;;;;;;3.20;1.40;;;25.90;74.80;;;;;;5033209;28;20210;-61
2023/08/08 09:57:42;;;;;;;1.92;1.08;;;26.00;74.20;;;;;;5032790;28;20233;-60
2023/08/08 10:00:15;;;;;;;2.55;1.20;;;26.10;71.90;;;;;;5033105;28;20213;-60
2023/08/08 10:02:43;;;;;;;2.13;1.00;;;26.20;71.50;;;;;;5032629;28;20279;-62
2023/08/08 10:05:12;;;;;;;1.45;0.88;;;26.40;70.20;;;;;;5033331;28;20194;-62
2023/08/08 10:07:40;;;;;;;2.55;1.08;;;26.50;69.70;;;;;;5032670;28;20238;-65
2023/08/08 10:10:09;;;;;;;3.33;1.30;;;26.30;68.10;;;;;;5033010;28;20257;-63
2023/08/08 10:12:37;;;;;;;2.00;0.95;;;26.10;69.40;;;;;;5032786;28;20590;-59
2023/08/08 10:15:07;;;;;;;1.30;1.00;;;25.90;69.60;;;;;;5033664;28;20667;-60
2023/08/08 10:17:38;;;;;;;1.98;1.15;;;25.80;71.20;;;;;;5033177;28;20664;-59
2023/08/08 10:20:11;;;;;;;2.80;1.38;;;25.70;69.80;;;;;;5033775;28;20203;-58
2023/08/08 10:22:39;;;;;;;1.55;1.33;;;25.30;69.80;;;;;;5033709;28;20213;-58
2023/08/08 10:25:06;;;;;;;2.85;1.60;;;25.20;72.30;;;;;;5033547;28;20238;-58
2023/08/08 10:27:33;;;;;;;4.13;1.50;;;25.10;73.70;;;;;;5033347;28;20230;-59
2023/08/08 10:30:09;;;;;;;2.17;1.05;;;25.30;73.60;;;;;;5033230;28;20213;-59
2023/08/08 10:32:41;;;;;;;1.70;1.10;;;25.40;71.50;;;;;;5033629;28;20268;-58
2023/08/08 10:35:08;;;;;;;1.63;1.20;;;25.60;72.40;;;;;;5033697;28;20214;-58
2023/08/08 10:37:36;;;;;;;1.05;0.95;;;25.80;71.70;;;;;;5033079;28;20234;-58
2023/08/08 10:40:06;;;;;;;2.75;1.15;;;25.80;67.10;;;;;;5033564;28;20210;-58
2023/08/08 10:42:33;;;;;;;2.33;1.15;;;25.80;66.80;;;;;;5033669;28;20233;-61
2023/08/08 10:45:01;;;;;;;1.55;1.17;;;26.00;67.50;;;;;;5033485;28;20220;-61
2023/08/08 10:47:35;;;;;;;3.80;1.13;;;26.20;65.80;;;;;;5032998;28;20237;-61
2023/08/08 10:50:08;;;;;;;1.75;0.93;;;26.30;68.70;;;;;;5033309;28;20704;-59
2023/08/08 10:52:50;;;;;;;3.33;1.10;;;26.30;69.60;;;;;;5033005;28;20610;-62
2023/08/08 10:55:20;;;;;;;3.90;1.30;;;26.20;68.80;;;;;;5033109;28;20682;-60
2023/08/08 10:57:54;;;;;;;4.70;2.65;;;26.30;69.30;;;;;;5033007;28;20261;-60
2023/08/08 11:00:25;;;;;;;7.20;2.90;;;26.70;68.30;;;;;;5033314;28;20252;-61
2023/08/08 11:02:52;;;;;;;3.42;1.90;;;26.90;64.80;;;;;;5032425;28;20217;-61
2023/08/08 11:05:21;;;;;;;4.47;1.48;;;27.00;65.00;;;;;;5032873;28;20301;-61
2023/08/08 11:07:48;;;;;;;4.05;1.70;;;27.00;64.70;;;;;;5032317;28;20233;-61
2023/08/08 11:10:15;;;;;;;4.68;1.90;;;27.00;65.40;;;;;;5032946;28;20210;-62
2023/08/08 11:12:42;;;;;;;2.45;1.20;;;27.20;63.40;;;;;;5033056;28;20213;-61
2023/08/08 11:15:09;;;;;;;2.90;1.02;;;27.30;64.10;;;;;;5032745;28;20234;-61
2023/08/08 11:17:37;;;;;;;3.15;1.17;;;27.40;63.30;;;;;;5032338;28;20222;-59
2023/08/08 11:20:04;;;;;;;5.95;2.22;;;27.30;61.40;;;;;;5033101;28;20264;-59
2023/08/08 11:22:32;;;;;;;5.43;2.88;;;27.10;62.20;;;;;;5033152;28;20230;-60
2023/08/08 11:25:03;;;;;;;3.55;1.40;;;26.90;63.70;;;;;;5033151;28;20693;-60
2023/08/08 11:27:29;;;;;;;3.90;1.88;;;26.70;64.40;;;;;;5032223;28;20257;-61
2023/08/08 11:29:57;;;;;;;1.02;0.88;;;26.70;63.90;;;;;;5032391;28;20213;-60
2023/08/08 11:32:25;;;;;;;1.58;1.20;;;26.80;63.50;;;;;;5032268;28;20705;-60
2023/08/08 11:34:51;;;;;;;2.83;1.40;;;26.60;62.20;;;;;;5032607;28;20207;-60
2023/08/08 11:37:19;;;;;;;2.50;1.35;;;26.30;62.50;;;;;;5031906;28;20241;-60
2023/08/08 11:39:47;;;;;;;2.63;1.00;;;26.10;64.60;;;;;;5032468;28;20210;-61
2023/08/08 11:42:14;;;;;;;1.52;0.80;;;26.10;62.60;;;;;;5032063;28;20202;-61
2023/08/08 11:44:41;;;;;;;1.70;1.08;;;26.10;63.80;;;;;;5032010;28;20206;-60
2023/08/08 11:47:08;;;;;;;3.03;1.17;;;25.70;64.00;;;;;;5031445;28;20238;-61
2023/08/08 11:49:41;;;;;;;1.50;0.90;;;25.80;64.20;;;;;;5032183;28;20221;-61
2023/08/08 11:52:09;;;;;;;4.32;1.17;;;26.10;65.20;;;;;;5032386;28;20218;-62
2023/08/08 11:54:38;;;;;;;3.53;1.17;;;26.50;65.20;;;;;;5031992;28;20615;-61
2023/08/08 11:57:06;;;;;;;3.28;1.50;;;26.90;63.70;;;;;;5031979;28;20230;-62
2023/08/08 11:59:32;;;;;;;3.63;1.30;;;27.20;63.40;;;;;;5031863;28;20666;-62
2023/08/08 12:02:00;;;;;;;2.78;1.17;;;27.20;62.70;;;;;;5032369;28;20206;-61
2023/08/08 12:04:27;;;;;;;2.88;1.02;;;27.30;62.70;;;;;;5032155;28;20233;-63
2023/08/08 12:07:02;;;;;;;1.42;1.02;;;27.50;64.10;;;;;;5031552;28;20225;-62
2023/08/08 12:09:32;;;;;;;1.42;0.93;;;27.60;61.00;;;;;;5032082;28;20450;-61
2023/08/08 12:12:00;;;;;;;1.40;0.98;;;27.60;61.30;;;;;;5031731;28;20210;-63
2023/08/08 12:14:28;;;;;;;2.45;1.40;;;27.60;61.50;;;;;;5031015;28;20206;-62
2023/08/08 12:16:55;;;;;;;2.03;1.20;;;27.60;61.50;;;;;;5031347;28;20234;-62
2023/08/08 12:19:24;;;;;;;4.70;1.17;;;27.20;59.20;;;;;;5031752;28;20209;-61
2023/08/08 12:21:51;;;;;;;3.03;1.00;;;26.90;60.80;;;;;;5032255;28;20213;-61
2023/08/08 12:24:18;;;;;;;2.65;1.20;;;27.00;62.10;;;;;;5031890;28;20209;-60
2023/08/08 12:26:45;;;;;;;1.48;1.10;;;27.20;61.80;;;;;;5031163;28;20257;-62
2023/08/08 12:29:11;;;;;;;1.80;1.10;;;27.40;62.40;;;;;;5031557;28;20610;-62
2023/08/08 12:31:40;;;;;;;3.88;1.00;;;27.40;60.40;;;;;;5031559;28;20316;-62
2023/08/08 12:34:06;;;;;;;1.17;1.00;;;27.50;60.90;;;;;;5031817;28;20655;-61
2023/08/08 12:36:33;;;;;;;1.85;1.33;;;27.40;62.00;;;;;;5031105;28;20244;-60
2023/08/08 12:39:00;;;;;;;1.38;1.00;;;27.50;61.30;;;;;;5032280;28;20209;-60
2023/08/08 12:41:26;;;;;;;1.33;0.98;;;27.20;61.00;;;;;;5031357;28;20215;-59
2023/08/08 12:43:53;;;;;;;2.95;1.48;;;26.90;62.00;;;;;;5031344;28;20678;-60
2023/08/08 12:46:20;;;;;;;1.77;1.40;;;26.70;63.90;;;;;;5031161;28;20202;-63
2023/08/08 12:48:48;;;;;;;1.38;1.05;;;26.60;62.50;;;;;;5031756;28;20665;-60